sensor_id;sensor_type;location;lat;lon;timestamp;P1;durP1;ratioP1;P2;durP2;ratioP2
64457;SDS011;58438;51.200;7.252;2022-12-16T00:00:50;12.93;;;5.32;;
64457;SDS011;58438;51.200;7.252;2022-12-16T00:03:39;8.57;;;3.90;;
64457;SDS011;58438;51.200;7.252;2022-12-16T00:06:28;8.35;;;4.53;;
64457;SDS011;58438;51.200;7.252;2022-12-16T00:09:16;5.18;;;4.32;;
64457;SDS011;58438;51.200;7.252;2022-12-16T00:12:03;8.68;;;3.70;;
64457;SDS011;58438;51.200;7.252;2022-12-16T00:14:51;5.90;;;4.07;;
64457;SDS011;58438;51.200;7.252;2022-12-16T00:17:40;6.80;;;3.40;;
64457;SDS011;58438;51.200;7.252;2022-12-16T00:20:28;6.22;;;3.58;;
64457;SDS011;58438;51.200;7.252;2022-12-16T00:23:15;8.70;;;3.75;;
64457;SDS011;58438;51.200;7.252;2022-12-16T00:26:02;6.30;;;3.38;;
64457;SDS011;58438;51.200;7.252;2022-12-16T00:28:49;9.43;;;4.20;;
64457;SDS011;58438;51.200;7.252;2022-12-16T00:31:39;6.50;;;3.67;;
64457;SDS011;58438;51.200;7.252;2022-12-16T00:34:28;4.03;;;3.55;;
64457;SDS011;58438;51.200;7.252;2022-12-16T00:37:15;11.40;;;3.53;;
64457;SDS011;58438;51.200;7.252;2022-12-16T00:40:02;6.72;;;3.80;;
64457;SDS011;58438;51.200;7.252;2022-12-16T00:42:50;6.35;;;4.20;;
64457;SDS011;58438;51.200;7.252;2022-12-16T00:45:39;6.38;;;3.33;;
64457;SDS011;58438;51.200;7.252;2022-12-16T00:48:27;5.43;;;3.17;;
64457;SDS011;58438;51.200;7.252;2022-12-16T00:51:15;4.80;;;3.63;;
64457;SDS011;58438;51.200;7.252;2022-12-16T00:54:03;10.07;;;3.28;;
64457;SDS011;58438;51.200;7.252;2022-12-16T00:56:50;7.55;;;3.53;;
64457;SDS011;58438;51.200;7.252;2022-12-16T00:59:38;5.20;;;3.53;;
64457;SDS011;58438;51.200;7.252;2022-12-16T01:02:25;6.65;;;4.22;;
64457;SDS011;58438;51.200;7.252;2022-12-16T01:05:13;11.90;;;6.03;;
64457;SDS011;58438;51.200;7.252;2022-12-16T01:08:02;8.15;;;4.13;;
64457;SDS011;58438;51.200;7.252;2022-12-16T01:10:49;8.60;;;4.45;;
64457;SDS011;58438;51.200;7.252;2022-12-16T01:13:37;6.43;;;4.93;;
64457;SDS011;58438;51.200;7.252;2022-12-16T01:16:26;8.68;;;4.32;;
64457;SDS011;58438;51.200;7.252;2022-12-16T01:19:15;9.57;;;4.43;;
64457;SDS011;58438;51.200;7.252;2022-12-16T01:22:04;10.00;;;5.50;;
64457;SDS011;58438;51.200;7.252;2022-12-16T01:24:55;10.35;;;4.93;;
64457;SDS011;58438;51.200;7.252;2022-12-16T01:27:45;10.43;;;5.45;;
64457;SDS011;58438;51.200;7.252;2022-12-16T01:30:36;12.70;;;6.13;;
64457;SDS011;58438;51.200;7.252;2022-12-16T01:33:26;9.82;;;5.75;;
64457;SDS011;58438;51.200;7.252;2022-12-16T01:36:16;11.50;;;6.25;;
64457;SDS011;58438;51.200;7.252;2022-12-16T01:39:07;8.00;;;5.10;;
64457;SDS011;58438;51.200;7.252;2022-12-16T01:41:58;10.93;;;5.43;;
64457;SDS011;58438;51.200;7.252;2022-12-16T01:44:48;14.73;;;5.32;;
64457;SDS011;58438;51.200;7.252;2022-12-16T01:47:40;11.27;;;4.82;;
64457;SDS011;58438;51.200;7.252;2022-12-16T01:50:30;7.70;;;4.47;;
64457;SDS011;58438;51.200;7.252;2022-12-16T01:53:21;7.20;;;4.13;;
64457;SDS011;58438;51.200;7.252;2022-12-16T01:56:11;6.97;;;4.32;;
64457;SDS011;58438;51.200;7.252;2022-12-16T01:59:03;12.63;;;4.22;;
64457;SDS011;58438;51.200;7.252;2022-12-16T02:01:53;10.00;;;4.53;;
64457;SDS011;58438;51.200;7.252;2022-12-16T02:04:44;7.75;;;4.45;;
64457;SDS011;58438;51.200;7.252;2022-12-16T02:07:50;7.22;;;4.00;;
64457;SDS011;58438;51.200;7.252;2022-12-16T02:10:45;6.60;;;3.35;;
64457;SDS011;58438;51.200;7.252;2022-12-16T02:13:39;10.00;;;4.55;;
64457;SDS011;58438;51.200;7.252;2022-12-16T02:16:35;10.68;;;4.90;;
64457;SDS011;58438;51.200;7.252;2022-12-16T02:19:33;10.98;;;4.32;;
64457;SDS011;58438;51.200;7.252;2022-12-16T02:22:26;9.43;;;3.67;;
64457;SDS011;58438;51.200;7.252;2022-12-16T02:25:27;12.15;;;5.10;;
64457;SDS011;58438;51.200;7.252;2022-12-16T02:28:20;7.32;;;3.65;;
64457;SDS011;58438;51.200;7.252;2022-12-16T02:31:15;9.18;;;3.95;;
64457;SDS011;58438;51.200;7.252;2022-12-16T02:34:07;6.30;;;3.28;;
64457;SDS011;58438;51.200;7.252;2022-12-16T02:36:58;10.25;;;4.82;;
64457;SDS011;58438;51.200;7.252;2022-12-16T02:39:49;11.20;;;4.70;;
64457;SDS011;58438;51.200;7.252;2022-12-16T02:42:40;8.70;;;3.47;;
64457;SDS011;58438;51.200;7.252;2022-12-16T02:45:28;7.53;;;3.03;;
64457;SDS011;58438;51.200;7.252;2022-12-16T02:48:18;9.98;;;4.55;;
64457;SDS011;58438;51.200;7.252;2022-12-16T02:51:05;9.13;;;4.97;;
64457;SDS011;58438;51.200;7.252;2022-12-16T02:53:52;10.68;;;3.75;;
64457;SDS011;58438;51.200;7.252;2022-12-16T02:56:46;5.68;;;3.47;;
64457;SDS011;58438;51.200;7.252;2022-12-16T02:59:37;4.28;;;2.85;;
64457;SDS011;58438;51.200;7.252;2022-12-16T03:02:27;4.90;;;2.88;;
64457;SDS011;58438;51.200;7.252;2022-12-16T03:05:19;3.83;;;2.45;;
64457;SDS011;58438;51.200;7.252;2022-12-16T03:08:08;6.63;;;2.83;;
64457;SDS011;58438;51.200;7.252;2022-12-16T03:10:58;3.92;;;2.47;;
64457;SDS011;58438;51.200;7.252;2022-12-16T03:13:49;5.40;;;2.45;;
64457;SDS011;58438;51.200;7.252;2022-12-16T03:16:37;8.65;;;2.75;;
64457;SDS011;58438;51.200;7.252;2022-12-16T03:19:25;5.38;;;2.38;;
64457;SDS011;58438;51.200;7.252;2022-12-16T03:22:15;4.85;;;2.22;;
64457;SDS011;58438;51.200;7.252;2022-12-16T03:25:04;4.30;;;2.72;;
64457;SDS011;58438;51.200;7.252;2022-12-16T03:27:53;5.07;;;2.30;;
64457;SDS011;58438;51.200;7.252;2022-12-16T03:30:43;5.43;;;2.50;;
64457;SDS011;58438;51.200;7.252;2022-12-16T03:33:34;5.18;;;2.58;;
64457;SDS011;58438;51.200;7.252;2022-12-16T03:36:23;3.83;;;2.35;;
64457;SDS011;58438;51.200;7.252;2022-12-16T03:39:13;5.22;;;2.55;;
64457;SDS011;58438;51.200;7.252;2022-12-16T03:42:01;7.43;;;2.35;;
64457;SDS011;58438;51.200;7.252;2022-12-16T03:44:49;4.78;;;1.67;;
64457;SDS011;58438;51.200;7.252;2022-12-16T03:47:36;3.00;;;2.30;;
64457;SDS011;58438;51.200;7.252;2022-12-16T03:50:24;2.78;;;2.10;;
64457;SDS011;58438;51.200;7.252;2022-12-16T03:53:12;9.77;;;2.20;;
64457;SDS011;58438;51.200;7.252;2022-12-16T03:56:01;3.00;;;2.35;;
64457;SDS011;58438;51.200;7.252;2022-12-16T03:58:48;4.13;;;2.35;;
64457;SDS011;58438;51.200;7.252;2022-12-16T04:01:35;7.70;;;2.67;;
64457;SDS011;58438;51.200;7.252;2022-12-16T04:04:23;5.75;;;2.50;;
64457;SDS011;58438;51.200;7.252;2022-12-16T04:07:11;4.15;;;2.83;;
64457;SDS011;58438;51.200;7.252;2022-12-16T04:10:09;6.15;;;2.63;;
64457;SDS011;58438;51.200;7.252;2022-12-16T04:12:58;5.15;;;2.90;;
64457;SDS011;58438;51.200;7.252;2022-12-16T04:16:02;2.22;;;2.05;;
64457;SDS011;58438;51.200;7.252;2022-12-16T04:19:08;2.88;;;2.30;;
64457;SDS011;58438;51.200;7.252;2022-12-16T04:22:15;8.20;;;2.80;;
64457;SDS011;58438;51.200;7.252;2022-12-16T04:25:22;5.20;;;3.08;;
64457;SDS011;58438;51.200;7.252;2022-12-16T04:28:11;9.55;;;2.80;;
64457;SDS011;58438;51.200;7.252;2022-12-16T04:30:59;6.13;;;2.60;;
64457;SDS011;58438;51.200;7.252;2022-12-16T04:33:46;2.58;;;1.90;;
64457;SDS011;58438;51.200;7.252;2022-12-16T04:36:50;2.58;;;1.75;;
64457;SDS011;58438;51.200;7.252;2022-12-16T04:39:55;2.55;;;2.22;;
64457;SDS011;58438;51.200;7.252;2022-12-16T04:42:59;3.33;;;2.33;;
64457;SDS011;58438;51.200;7.252;2022-12-16T04:46:05;4.70;;;2.65;;
64457;SDS011;58438;51.200;7.252;2022-12-16T04:49:10;6.07;;;4.32;;
64457;SDS011;58438;51.200;7.252;2022-12-16T04:52:14;5.80;;;3.80;;
64457;SDS011;58438;51.200;7.252;2022-12-16T04:58:23;5.88;;;5.13;;
64457;SDS011;58438;51.200;7.252;2022-12-16T05:04:34;6.88;;;4.68;;
64457;SDS011;58438;51.200;7.252;2022-12-16T05:07:38;7.63;;;4.93;;
64457;SDS011;58438;51.200;7.252;2022-12-16T05:10:48;9.80;;;5.70;;
64457;SDS011;58438;51.200;7.252;2022-12-16T05:13:52;13.57;;;5.70;;
64457;SDS011;58438;51.200;7.252;2022-12-16T05:16:57;7.18;;;5.25;;
64457;SDS011;58438;51.200;7.252;2022-12-16T05:20:03;12.00;;;6.00;;
64457;SDS011;58438;51.200;7.252;2022-12-16T05:23:08;6.90;;;5.18;;
64457;SDS011;58438;51.200;7.252;2022-12-16T05:29:17;5.20;;;3.70;;
64457;SDS011;58438;51.200;7.252;2022-12-16T05:32:21;19.38;;;3.35;;
64457;SDS011;58438;51.200;7.252;2022-12-16T05:35:27;6.47;;;3.30;;
64457;SDS011;58438;51.200;7.252;2022-12-16T05:38:31;4.13;;;2.90;;
64457;SDS011;58438;51.200;7.252;2022-12-16T05:44:40;4.82;;;3.42;;
64457;SDS011;58438;51.200;7.252;2022-12-16T05:50:51;3.20;;;2.92;;
64457;SDS011;58438;51.200;7.252;2022-12-16T05:53:55;3.00;;;2.65;;
64457;SDS011;58438;51.200;7.252;2022-12-16T05:57:00;4.80;;;2.85;;
64457;SDS011;58438;51.200;7.252;2022-12-16T06:00:16;5.97;;;2.13;;
64457;SDS011;58438;51.200;7.252;2022-12-16T06:06:26;4.10;;;2.00;;
64457;SDS011;58438;51.200;7.252;2022-12-16T06:09:31;7.40;;;2.47;;
64457;SDS011;58438;51.200;7.252;2022-12-16T06:12:44;6.78;;;2.78;;
64457;SDS011;58438;51.200;7.252;2022-12-16T06:15:48;2.80;;;2.50;;
64457;SDS011;58438;51.200;7.252;2022-12-16T06:18:54;3.70;;;2.25;;
64457;SDS011;58438;51.200;7.252;2022-12-16T06:22:00;4.88;;;2.75;;
64457;SDS011;58438;51.200;7.252;2022-12-16T06:25:04;3.08;;;2.30;;
64457;SDS011;58438;51.200;7.252;2022-12-16T06:28:09;6.80;;;2.33;;
64457;SDS011;58438;51.200;7.252;2022-12-16T06:31:13;3.22;;;1.85;;
64457;SDS011;58438;51.200;7.252;2022-12-16T06:34:18;4.00;;;2.30;;
64457;SDS011;58438;51.200;7.252;2022-12-16T06:37:24;2.40;;;2.20;;
64457;SDS011;58438;51.200;7.252;2022-12-16T06:40:28;5.20;;;1.98;;
64457;SDS011;58438;51.200;7.252;2022-12-16T06:43:32;3.97;;;2.08;;
64457;SDS011;58438;51.200;7.252;2022-12-16T06:46:37;2.55;;;2.13;;
64457;SDS011;58438;51.200;7.252;2022-12-16T06:49:41;2.25;;;2.10;;
64457;SDS011;58438;51.200;7.252;2022-12-16T06:52:47;2.35;;;2.05;;
64457;SDS011;58438;51.200;7.252;2022-12-16T06:55:51;2.40;;;1.98;;
64457;SDS011;58438;51.200;7.252;2022-12-16T06:58:56;1.85;;;1.75;;
64457;SDS011;58438;51.200;7.252;2022-12-16T07:05:05;2.33;;;2.13;;
64457;SDS011;58438;51.200;7.252;2022-12-16T07:11:15;1.52;;;1.40;;
64457;SDS011;58438;51.200;7.252;2022-12-16T07:14:20;3.03;;;2.15;;
64457;SDS011;58438;51.200;7.252;2022-12-16T07:17:30;1.30;;;1.20;;
64457;SDS011;58438;51.200;7.252;2022-12-16T07:20:34;2.13;;;1.67;;
64457;SDS011;58438;51.200;7.252;2022-12-16T07:23:39;2.45;;;1.90;;
64457;SDS011;58438;51.200;7.252;2022-12-16T07:26:45;7.68;;;1.63;;
64457;SDS011;58438;51.200;7.252;2022-12-16T07:29:49;1.85;;;1.40;;
64457;SDS011;58438;51.200;7.252;2022-12-16T07:35:58;1.77;;;1.30;;
64457;SDS011;58438;51.200;7.252;2022-12-16T07:39:03;1.80;;;1.70;;
64457;SDS011;58438;51.200;7.252;2022-12-16T07:45:13;4.60;;;1.70;;
64457;SDS011;58438;51.200;7.252;2022-12-16T07:48:17;3.67;;;3.38;;
64457;SDS011;58438;51.200;7.252;2022-12-16T07:51:22;5.43;;;4.80;;
64457;SDS011;58438;51.200;7.252;2022-12-16T07:54:27;5.32;;;4.75;;
64457;SDS011;58438;51.200;7.252;2022-12-16T07:57:31;5.00;;;4.45;;
64457;SDS011;58438;51.200;7.252;2022-12-16T08:00:37;6.13;;;4.00;;
64457;SDS011;58438;51.200;7.252;2022-12-16T08:03:41;4.53;;;3.25;;
64457;SDS011;58438;51.200;7.252;2022-12-16T08:06:46;6.38;;;3.58;;
64457;SDS011;58438;51.200;7.252;2022-12-16T08:09:51;5.90;;;3.03;;
64457;SDS011;58438;51.200;7.252;2022-12-16T08:12:58;5.30;;;3.60;;
64457;SDS011;58438;51.200;7.252;2022-12-16T08:16:11;3.83;;;2.70;;
64457;SDS011;58438;51.200;7.252;2022-12-16T08:19:16;8.27;;;4.15;;
64457;SDS011;58438;51.200;7.252;2022-12-16T08:22:21;7.45;;;4.32;;
64457;SDS011;58438;51.200;7.252;2022-12-16T08:28:29;9.05;;;6.40;;
64457;SDS011;58438;51.200;7.252;2022-12-16T08:31:35;9.23;;;5.25;;
64457;SDS011;58438;51.200;7.252;2022-12-16T08:34:40;7.70;;;5.63;;
64457;SDS011;58438;51.200;7.252;2022-12-16T08:37:45;11.40;;;4.75;;
64457;SDS011;58438;51.200;7.252;2022-12-16T08:40:58;13.57;;;6.65;;
64457;SDS011;58438;51.200;7.252;2022-12-16T08:44:12;15.37;;;7.13;;
64457;SDS011;58438;51.200;7.252;2022-12-16T08:47:18;10.75;;;5.57;;
64457;SDS011;58438;51.200;7.252;2022-12-16T08:50:23;8.93;;;6.85;;
64457;SDS011;58438;51.200;7.252;2022-12-16T08:53:27;9.23;;;5.85;;
64457;SDS011;58438;51.200;7.252;2022-12-16T08:56:32;9.98;;;5.38;;
64457;SDS011;58438;51.200;7.252;2022-12-16T08:59:37;9.02;;;5.95;;
64457;SDS011;58438;51.200;7.252;2022-12-16T09:02:44;9.68;;;6.38;;
64457;SDS011;58438;51.200;7.252;2022-12-16T09:05:50;10.13;;;5.93;;
64457;SDS011;58438;51.200;7.252;2022-12-16T09:08:54;11.18;;;6.00;;
64457;SDS011;58438;51.200;7.252;2022-12-16T09:11:59;8.50;;;6.00;;
64457;SDS011;58438;51.200;7.252;2022-12-16T09:15:04;8.70;;;6.10;;
64457;SDS011;58438;51.200;7.252;2022-12-16T09:18:11;6.15;;;5.13;;
64457;SDS011;58438;51.200;7.252;2022-12-16T09:21:16;12.02;;;6.40;;
64457;SDS011;58438;51.200;7.252;2022-12-16T09:24:21;9.00;;;6.53;;
64457;SDS011;58438;51.200;7.252;2022-12-16T09:27:25;8.70;;;5.55;;
64457;SDS011;58438;51.200;7.252;2022-12-16T09:30:30;17.58;;;5.88;;
64457;SDS011;58438;51.200;7.252;2022-12-16T09:33:37;10.23;;;5.70;;
64457;SDS011;58438;51.200;7.252;2022-12-16T09:36:42;7.90;;;5.20;;
64457;SDS011;58438;51.200;7.252;2022-12-16T09:39:46;7.68;;;4.75;;
64457;SDS011;58438;51.200;7.252;2022-12-16T09:42:52;10.63;;;4.43;;
64457;SDS011;58438;51.200;7.252;2022-12-16T09:45:58;9.80;;;4.70;;
64457;SDS011;58438;51.200;7.252;2022-12-16T09:49:10;8.13;;;4.70;;
64457;SDS011;58438;51.200;7.252;2022-12-16T09:52:19;14.20;;;4.97;;
64457;SDS011;58438;51.200;7.252;2022-12-16T09:55:26;6.13;;;4.35;;
64457;SDS011;58438;51.200;7.252;2022-12-16T09:58:31;5.03;;;3.85;;
64457;SDS011;58438;51.200;7.252;2022-12-16T10:01:40;9.98;;;4.32;;
64457;SDS011;58438;51.200;7.252;2022-12-16T10:04:49;12.18;;;5.22;;
64457;SDS011;58438;51.200;7.252;2022-12-16T10:07:56;9.15;;;5.00;;
64457;SDS011;58438;51.200;7.252;2022-12-16T10:11:06;11.48;;;5.05;;
64457;SDS011;58438;51.200;7.252;2022-12-16T10:14:12;8.77;;;4.82;;
64457;SDS011;58438;51.200;7.252;2022-12-16T10:17:18;9.45;;;5.03;;
64457;SDS011;58438;51.200;7.252;2022-12-16T10:20:29;8.07;;;4.80;;
64457;SDS011;58438;51.200;7.252;2022-12-16T10:23:39;6.07;;;3.88;;
64457;SDS011;58438;51.200;7.252;2022-12-16T10:26:48;8.85;;;4.03;;
64457;SDS011;58438;51.200;7.252;2022-12-16T10:29:54;5.80;;;3.38;;
64457;SDS011;58438;51.200;7.252;2022-12-16T10:32:59;4.63;;;2.67;;
64457;SDS011;58438;51.200;7.252;2022-12-16T10:36:09;5.10;;;2.40;;
64457;SDS011;58438;51.200;7.252;2022-12-16T10:39:18;3.35;;;2.50;;
64457;SDS011;58438;51.200;7.252;2022-12-16T10:42:31;4.97;;;2.47;;
64457;SDS011;58438;51.200;7.252;2022-12-16T10:45:41;6.20;;;2.80;;
64457;SDS011;58438;51.200;7.252;2022-12-16T10:48:47;6.35;;;2.70;;
64457;SDS011;58438;51.200;7.252;2022-12-16T10:51:53;7.15;;;2.70;;
64457;SDS011;58438;51.200;7.252;2022-12-16T10:55:00;8.13;;;3.45;;
64457;SDS011;58438;51.200;7.252;2022-12-16T10:58:09;6.97;;;3.25;;
64457;SDS011;58438;51.200;7.252;2022-12-16T11:01:21;6.18;;;3.35;;
64457;SDS011;58438;51.200;7.252;2022-12-16T11:04:27;8.43;;;3.53;;
64457;SDS011;58438;51.200;7.252;2022-12-16T11:07:35;8.15;;;4.03;;
64457;SDS011;58438;51.200;7.252;2022-12-16T11:10:41;11.07;;;4.43;;
64457;SDS011;58438;51.200;7.252;2022-12-16T11:13:46;8.30;;;4.03;;
64457;SDS011;58438;51.200;7.252;2022-12-16T11:16:56;6.45;;;3.45;;
64457;SDS011;58438;51.200;7.252;2022-12-16T11:20:14;4.85;;;3.15;;
64457;SDS011;58438;51.200;7.252;2022-12-16T11:23:21;5.80;;;3.10;;
64457;SDS011;58438;51.200;7.252;2022-12-16T11:26:26;10.45;;;4.45;;
64457;SDS011;58438;51.200;7.252;2022-12-16T11:29:49;6.80;;;4.05;;
64457;SDS011;58438;51.200;7.252;2022-12-16T11:32:54;5.65;;;3.80;;
64457;SDS011;58438;51.200;7.252;2022-12-16T11:36:04;7.07;;;3.38;;
64457;SDS011;58438;51.200;7.252;2022-12-16T11:39:12;7.63;;;2.72;;
64457;SDS011;58438;51.200;7.252;2022-12-16T11:42:19;3.70;;;2.75;;
64457;SDS011;58438;51.200;7.252;2022-12-16T11:45:24;6.40;;;2.72;;
64457;SDS011;58438;51.200;7.252;2022-12-16T11:51:45;3.70;;;2.10;;
64457;SDS011;58438;51.200;7.252;2022-12-16T11:55:15;5.15;;;2.30;;
64457;SDS011;58438;51.200;7.252;2022-12-16T11:58:41;4.15;;;2.58;;
64457;SDS011;58438;51.200;7.252;2022-12-16T12:01:49;5.53;;;2.35;;
64457;SDS011;58438;51.200;7.252;2022-12-16T12:04:54;3.97;;;2.00;;
64457;SDS011;58438;51.200;7.252;2022-12-16T12:08:00;6.47;;;2.40;;
64457;SDS011;58438;51.200;7.252;2022-12-16T12:11:07;4.95;;;2.40;;
64457;SDS011;58438;51.200;7.252;2022-12-16T12:14:15;5.05;;;2.65;;
64457;SDS011;58438;51.200;7.252;2022-12-16T12:17:23;5.43;;;2.20;;
64457;SDS011;58438;51.200;7.252;2022-12-16T12:20:35;4.72;;;2.35;;
64457;SDS011;58438;51.200;7.252;2022-12-16T12:23:43;4.97;;;2.88;;
64457;SDS011;58438;51.200;7.252;2022-12-16T12:26:51;7.70;;;2.92;;
64457;SDS011;58438;51.200;7.252;2022-12-16T12:30:01;4.00;;;2.10;;
64457;SDS011;58438;51.200;7.252;2022-12-16T12:33:17;4.88;;;2.08;;
64457;SDS011;58438;51.200;7.252;2022-12-16T12:36:24;3.08;;;2.10;;
64457;SDS011;58438;51.200;7.252;2022-12-16T12:39:34;4.90;;;2.10;;
64457;SDS011;58438;51.200;7.252;2022-12-16T12:42:43;4.68;;;2.42;;
64457;SDS011;58438;51.200;7.252;2022-12-16T12:45:51;4.63;;;2.13;;
64457;SDS011;58438;51.200;7.252;2022-12-16T12:49:00;6.43;;;2.22;;
64457;SDS011;58438;51.200;7.252;2022-12-16T12:52:09;6.22;;;2.25;;
64457;SDS011;58438;51.200;7.252;2022-12-16T12:55:19;6.95;;;2.42;;
64457;SDS011;58438;51.200;7.252;2022-12-16T12:58:28;5.80;;;3.85;;
64457;SDS011;58438;51.200;7.252;2022-12-16T13:01:33;3.70;;;2.33;;
64457;SDS011;58438;51.200;7.252;2022-12-16T13:04:38;4.53;;;2.42;;
64457;SDS011;58438;51.200;7.252;2022-12-16T13:07:42;4.43;;;2.17;;
64457;SDS011;58438;51.200;7.252;2022-12-16T13:14:08;3.70;;;1.80;;
64457;SDS011;58438;51.200;7.252;2022-12-16T13:17:51;4.03;;;2.22;;
64457;SDS011;58438;51.200;7.252;2022-12-16T13:21:03;7.53;;;3.03;;
64457;SDS011;58438;51.200;7.252;2022-12-16T13:24:18;6.65;;;2.72;;
64457;SDS011;58438;51.200;7.252;2022-12-16T13:27:25;4.82;;;2.30;;
64457;SDS011;58438;51.200;7.252;2022-12-16T13:30:32;6.07;;;2.35;;
64457;SDS011;58438;51.200;7.252;2022-12-16T13:33:37;5.28;;;2.58;;
64457;SDS011;58438;51.200;7.252;2022-12-16T13:36:53;3.40;;;2.53;;
64457;SDS011;58438;51.200;7.252;2022-12-16T13:40:04;5.93;;;2.90;;
64457;SDS011;58438;51.200;7.252;2022-12-16T13:43:16;6.07;;;2.50;;
64457;SDS011;58438;51.200;7.252;2022-12-16T13:46:42;5.60;;;2.75;;
64457;SDS011;58438;51.200;7.252;2022-12-16T13:49:47;5.07;;;2.90;;
64457;SDS011;58438;51.200;7.252;2022-12-16T13:52:52;7.10;;;2.80;;
64457;SDS011;58438;51.200;7.252;2022-12-16T13:55:59;5.13;;;2.90;;
64457;SDS011;58438;51.200;7.252;2022-12-16T13:59:04;4.85;;;2.67;;
64457;SDS011;58438;51.200;7.252;2022-12-16T14:02:16;8.02;;;3.63;;
64457;SDS011;58438;51.200;7.252;2022-12-16T14:05:24;8.43;;;3.25;;
64457;SDS011;58438;51.200;7.252;2022-12-16T14:08:31;7.15;;;3.00;;
64457;SDS011;58438;51.200;7.252;2022-12-16T14:11:41;9.50;;;3.40;;
64457;SDS011;58438;51.200;7.252;2022-12-16T14:14:54;9.30;;;3.15;;
64457;SDS011;58438;51.200;7.252;2022-12-16T14:18:02;5.13;;;3.25;;
64457;SDS011;58438;51.200;7.252;2022-12-16T14:21:09;7.05;;;2.75;;
64457;SDS011;58438;51.200;7.252;2022-12-16T14:24:17;5.68;;;3.28;;
64457;SDS011;58438;51.200;7.252;2022-12-16T14:27:23;5.20;;;3.25;;
64457;SDS011;58438;51.200;7.252;2022-12-16T14:30:28;5.72;;;3.63;;
64457;SDS011;58438;51.200;7.252;2022-12-16T14:33:35;8.88;;;4.07;;
64457;SDS011;58438;51.200;7.252;2022-12-16T14:36:39;6.32;;;4.80;;
64457;SDS011;58438;51.200;7.252;2022-12-16T14:39:47;7.47;;;4.72;;
64457;SDS011;58438;51.200;7.252;2022-12-16T14:42:52;7.25;;;5.28;;
64457;SDS011;58438;51.200;7.252;2022-12-16T14:45:58;18.58;;;9.73;;
64457;SDS011;58438;51.200;7.252;2022-12-16T14:49:11;25.20;;;13.00;;
64457;SDS011;58438;51.200;7.252;2022-12-16T14:55:26;37.60;;;18.60;;
64457;SDS011;58438;51.200;7.252;2022-12-16T14:58:30;38.53;;;18.77;;
64457;SDS011;58438;51.200;7.252;2022-12-16T15:01:36;35.65;;;20.38;;
64457;SDS011;58438;51.200;7.252;2022-12-16T15:04:47;40.45;;;20.70;;
64457;SDS011;58438;51.200;7.252;2022-12-16T15:07:52;40.50;;;19.83;;
64457;SDS011;58438;51.200;7.252;2022-12-16T15:14:01;39.85;;;22.88;;
64457;SDS011;58438;51.200;7.252;2022-12-16T15:17:14;44.92;;;24.25;;
64457;SDS011;58438;51.200;7.252;2022-12-16T15:20:22;46.00;;;23.58;;
64457;SDS011;58438;51.200;7.252;2022-12-16T15:23:29;45.22;;;24.15;;
64457;SDS011;58438;51.200;7.252;2022-12-16T15:26:34;44.28;;;23.42;;
64457;SDS011;58438;51.200;7.252;2022-12-16T15:29:51;47.50;;;24.35;;
64457;SDS011;58438;51.200;7.252;2022-12-16T15:36:20;37.92;;;22.77;;
64457;SDS011;58438;51.200;7.252;2022-12-16T15:39:28;37.65;;;21.63;;
64457;SDS011;58438;51.200;7.252;2022-12-16T15:42:35;47.30;;;22.38;;
64457;SDS011;58438;51.200;7.252;2022-12-16T15:48:51;43.22;;;22.85;;
64457;SDS011;58438;51.200;7.252;2022-12-16T15:55:01;42.67;;;22.02;;
64457;SDS011;58438;51.200;7.252;2022-12-16T15:58:10;43.53;;;22.88;;
64457;SDS011;58438;51.200;7.252;2022-12-16T16:01:16;42.10;;;22.75;;
64457;SDS011;58438;51.200;7.252;2022-12-16T16:04:23;42.45;;;22.40;;
64457;SDS011;58438;51.200;7.252;2022-12-16T16:07:30;32.92;;;18.98;;
64457;SDS011;58438;51.200;7.252;2022-12-16T16:10:36;27.63;;;15.57;;
64457;SDS011;58438;51.200;7.252;2022-12-16T16:13:40;18.17;;;11.95;;
64457;SDS011;58438;51.200;7.252;2022-12-16T16:16:54;18.33;;;10.25;;
64457;SDS011;58438;51.200;7.252;2022-12-16T16:19:58;14.93;;;9.75;;
64457;SDS011;58438;51.200;7.252;2022-12-16T16:23:03;16.17;;;9.20;;
64457;SDS011;58438;51.200;7.252;2022-12-16T16:26:10;15.38;;;9.20;;
64457;SDS011;58438;51.200;7.252;2022-12-16T16:29:16;17.40;;;9.43;;
64457;SDS011;58438;51.200;7.252;2022-12-16T16:32:21;14.10;;;8.88;;
64457;SDS011;58438;51.200;7.252;2022-12-16T16:35:26;17.52;;;9.23;;
64457;SDS011;58438;51.200;7.252;2022-12-16T16:38:31;21.88;;;10.73;;
64457;SDS011;58438;51.200;7.252;2022-12-16T16:41:39;19.50;;;11.57;;
64457;SDS011;58438;51.200;7.252;2022-12-16T16:44:43;25.35;;;11.80;;
64457;SDS011;58438;51.200;7.252;2022-12-16T16:50:53;25.30;;;16.17;;
64457;SDS011;58438;51.200;7.252;2022-12-16T16:53:59;33.50;;;16.65;;
64457;SDS011;58438;51.200;7.252;2022-12-16T16:57:06;37.58;;;21.35;;
64457;SDS011;58438;51.200;7.252;2022-12-16T17:00:13;43.78;;;21.67;;
64457;SDS011;58438;51.200;7.252;2022-12-16T17:03:19;42.72;;;21.83;;
64457;SDS011;58438;51.200;7.252;2022-12-16T17:06:25;44.08;;;23.40;;
64457;SDS011;58438;51.200;7.252;2022-12-16T17:09:31;48.67;;;26.00;;
64457;SDS011;58438;51.200;7.252;2022-12-16T17:12:42;50.08;;;27.75;;
64457;SDS011;58438;51.200;7.252;2022-12-16T17:15:49;44.83;;;27.55;;
64457;SDS011;58438;51.200;7.252;2022-12-16T17:18:54;52.97;;;27.70;;
64457;SDS011;58438;51.200;7.252;2022-12-16T17:21:59;55.20;;;29.17;;
64457;SDS011;58438;51.200;7.252;2022-12-16T17:25:04;50.13;;;26.55;;
64457;SDS011;58438;51.200;7.252;2022-12-16T17:28:12;54.13;;;28.88;;
64457;SDS011;58438;51.200;7.252;2022-12-16T17:31:16;54.42;;;27.85;;
64457;SDS011;58438;51.200;7.252;2022-12-16T17:34:21;54.42;;;26.60;;
64457;SDS011;58438;51.200;7.252;2022-12-16T17:40:30;44.90;;;25.27;;
64457;SDS011;58438;51.200;7.252;2022-12-16T17:43:36;54.47;;;27.50;;
64457;SDS011;58438;51.200;7.252;2022-12-16T17:46:40;60.92;;;27.38;;
64457;SDS011;58438;51.200;7.252;2022-12-16T17:49:45;50.10;;;27.83;;
64457;SDS011;58438;51.200;7.252;2022-12-16T17:52:52;56.53;;;27.23;;
64457;SDS011;58438;51.200;7.252;2022-12-16T17:55:53;57.53;;;28.45;;
64457;SDS011;58438;51.200;7.252;2022-12-16T17:58:59;59.92;;;26.83;;
64457;SDS011;58438;51.200;7.252;2022-12-16T18:02:03;61.83;;;29.40;;
64457;SDS011;58438;51.200;7.252;2022-12-16T18:05:08;56.75;;;28.58;;
64457;SDS011;58438;51.200;7.252;2022-12-16T18:08:22;52.90;;;29.23;;
64457;SDS011;58438;51.200;7.252;2022-12-16T18:11:26;48.60;;;27.60;;
64457;SDS011;58438;51.200;7.252;2022-12-16T18:14:31;42.42;;;23.95;;
64457;SDS011;58438;51.200;7.252;2022-12-16T18:17:36;49.97;;;24.63;;
64457;SDS011;58438;51.200;7.252;2022-12-16T18:20:41;42.30;;;22.50;;
64457;SDS011;58438;51.200;7.252;2022-12-16T18:26:49;35.92;;;21.48;;
64457;SDS011;58438;51.200;7.252;2022-12-16T18:29:55;43.35;;;23.13;;
64457;SDS011;58438;51.200;7.252;2022-12-16T18:33:00;38.72;;;21.70;;
64457;SDS011;58438;51.200;7.252;2022-12-16T18:39:09;39.78;;;21.73;;
64457;SDS011;58438;51.200;7.252;2022-12-16T18:45:19;39.17;;;21.47;;
64457;SDS011;58438;51.200;7.252;2022-12-16T18:48:23;42.53;;;23.00;;
64457;SDS011;58438;51.200;7.252;2022-12-16T18:51:28;55.70;;;28.58;;
64457;SDS011;58438;51.200;7.252;2022-12-16T18:54:32;57.60;;;27.08;;
64457;SDS011;58438;51.200;7.252;2022-12-16T19:00:43;51.37;;;24.70;;
64457;SDS011;58438;51.200;7.252;2022-12-16T19:03:47;45.83;;;24.63;;
64457;SDS011;58438;51.200;7.252;2022-12-16T19:06:52;46.78;;;24.13;;
64457;SDS011;58438;51.200;7.252;2022-12-16T19:09:56;48.25;;;24.95;;
64457;SDS011;58438;51.200;7.252;2022-12-16T19:13:01;52.92;;;30.10;;
64457;SDS011;58438;51.200;7.252;2022-12-16T19:19:11;43.28;;;26.08;;
64457;SDS011;58438;51.200;7.252;2022-12-16T19:22:15;54.53;;;26.45;;
64457;SDS011;58438;51.200;7.252;2022-12-16T19:25:16;49.78;;;25.20;;
64457;SDS011;58438;51.200;7.252;2022-12-16T19:28:20;58.78;;;27.65;;